createdAt,value
2022-09-30T00:00:31.640Z,75.41
2022-09-30T00:01:31.681Z,74.12
2022-09-30T00:02:31.599Z,74.28
2022-09-30T00:03:31.577Z,74.44
2022-09-30T00:04:31.566Z,74.93
2022-09-30T00:05:31.541Z,71.87
2022-09-30T00:06:31.552Z,76.22
2022-09-30T00:07:31.504Z,74.44
2022-09-30T00:08:31.488Z,75.73
2022-09-30T00:09:31.509Z,74.60
2022-09-30T00:10:31.473Z,72.35
2022-09-30T00:11:31.429Z,72.83
2022-09-30T00:12:31.411Z,74.93
2022-09-30T00:13:31.389Z,76.22
2022-09-30T00:14:31.401Z,76.54
2022-09-30T00:15:31.354Z,74.60
2022-09-30T00:16:31.379Z,75.89
2022-09-30T00:17:31.317Z,74.93
2022-09-30T00:18:31.294Z,76.86
2022-09-30T00:19:31.305Z,74.12
2022-09-30T00:20:31.259Z,74.93
2022-09-30T00:21:31.237Z,74.60
2022-09-30T00:22:31.224Z,74.44
2022-09-30T00:23:31.201Z,75.25
2022-09-30T00:24:31.214Z,75.09
2022-09-30T00:25:31.171Z,72.99
2022-09-30T00:26:31.152Z,74.93
2022-09-30T00:27:31.127Z,77.67
2022-09-30T00:28:31.116Z,76.38
2022-09-30T00:29:31.123Z,75.25
2022-09-30T00:30:31.082Z,74.60
2022-09-30T00:31:31.092Z,73.32
2022-09-30T00:32:31.041Z,74.44
2022-09-30T00:33:31.021Z,75.25
2022-09-30T00:34:31.035Z,75.41
2022-09-30T00:35:30.985Z,73.80
2022-09-30T00:36:30.971Z,74.28
2022-09-30T00:37:30.953Z,72.51
2022-09-30T00:38:30.935Z,74.93
2022-09-30T00:39:30.940Z,75.41
2022-09-30T00:40:30.895Z,76.38
2022-09-30T00:41:30.875Z,76.54
2022-09-30T00:42:30.856Z,74.93
2022-09-30T00:43:30.836Z,75.89
2022-09-30T00:44:30.844Z,76.05
2022-09-30T00:45:30.797Z,77.34
2022-09-30T00:46:30.858Z,76.70
2022-09-30T00:47:30.766Z,75.89
2022-09-30T00:48:30.749Z,75.57
2022-09-30T00:49:30.758Z,74.44
2022-09-30T00:50:30.715Z,76.86
2022-09-30T00:51:30.694Z,75.73
2022-09-30T00:52:30.680Z,74.60
2022-09-30T00:53:30.672Z,73.15
2022-09-30T00:54:30.677Z,76.54
2022-09-30T00:55:30.627Z,77.34
2022-09-30T00:56:30.611Z,73.48
2022-09-30T00:57:30.587Z,74.77
2022-09-30T00:58:30.575Z,76.22
2022-09-30T00:59:30.580Z,74.12
2022-09-30T01:00:30.592Z,75.41
2022-09-30T01:01:30.527Z,75.57
2022-09-30T01:02:30.496Z,74.28
2022-09-30T01:03:30.478Z,73.48
2022-09-30T01:04:30.487Z,73.64
2022-09-30T01:05:30.449Z,74.93
2022-09-30T01:06:30.424Z,74.60
2022-09-30T01:07:30.403Z,74.93
2022-09-30T01:08:30.389Z,72.83
2022-09-30T01:09:30.484Z,72.99
2022-09-30T01:10:30.354Z,73.96
2022-09-30T01:11:30.332Z,74.44
2022-09-30T01:12:30.318Z,73.32
2022-09-30T01:13:30.298Z,73.80
2022-09-30T01:14:30.301Z,74.93
2022-09-30T01:15:30.256Z,75.41
2022-09-30T01:16:30.310Z,75.41
2022-09-30T01:17:30.240Z,74.44
2022-09-30T01:18:30.204Z,72.99
2022-09-30T01:19:30.214Z,74.28
2022-09-30T01:20:30.180Z,74.12
2022-09-30T01:21:30.158Z,77.18
2022-09-30T01:22:30.134Z,74.60
2022-09-30T01:23:30.119Z,74.12
2022-09-30T01:24:30.126Z,75.41
2022-09-30T01:25:30.090Z,75.89
2022-09-30T01:26:30.059Z,75.09
2022-09-30T01:27:30.067Z,72.67
2022-09-30T01:28:30.024Z,74.60
2022-09-30T01:29:30.005Z,75.09
2022-09-30T01:30:30.979Z,74.28
2022-09-30T01:31:30.021Z,75.41
2022-09-30T01:32:29.971Z,77.50
2022-09-30T01:33:29.928Z,74.93
2022-09-30T01:34:29.936Z,74.93
2022-09-30T01:35:29.893Z,74.60
2022-09-30T01:36:29.873Z,75.41
2022-09-30T01:37:29.868Z,76.38
2022-09-30T01:38:29.832Z,75.89
2022-09-30T01:39:29.843Z,74.60
2022-09-30T01:40:29.797Z,75.25
2022-09-30T01:41:29.783Z,72.67
2022-09-30T01:42:29.762Z,72.35
2022-09-30T01:43:29.745Z,75.89
2022-09-30T01:44:29.753Z,71.54
2022-09-30T01:45:29.708Z,74.93
2022-09-30T01:46:29.706Z,74.60
2022-09-30T01:47:29.662Z,73.48
2022-09-30T01:48:29.647Z,73.32
2022-09-30T01:49:29.656Z,74.77
2022-09-30T01:50:29.606Z,74.12
2022-09-30T01:51:29.590Z,74.44
2022-09-30T01:52:29.576Z,72.99
2022-09-30T01:53:29.560Z,72.35
2022-09-30T01:54:29.562Z,73.64
2022-09-30T01:55:29.517Z,74.93
2022-09-30T01:56:29.499Z,75.41
2022-09-30T01:57:29.487Z,73.80
2022-09-30T01:58:29.464Z,75.89
2022-09-30T01:59:29.464Z,74.44
2022-09-30T02:00:29.459Z,74.93
2022-09-30T02:01:29.417Z,75.57
2022-09-30T02:02:29.432Z,76.38
2022-09-30T02:03:29.363Z,73.15
2022-09-30T02:04:29.368Z,75.73
2022-09-30T02:05:29.328Z,75.41
2022-09-30T02:06:29.307Z,75.73
2022-09-30T02:07:29.290Z,72.83
2022-09-30T02:08:29.269Z,76.05
2022-09-30T02:09:29.329Z,75.25
2022-09-30T02:10:29.226Z,75.09
2022-09-30T02:11:29.226Z,75.25
2022-09-30T02:12:29.189Z,75.25
2022-09-30T02:13:29.170Z,76.54
2022-09-30T02:14:29.180Z,73.48
2022-09-30T02:15:29.141Z,73.64
2022-09-30T02:16:29.153Z,75.57
2022-09-30T02:17:29.103Z,73.80
2022-09-30T02:18:29.084Z,74.93
2022-09-30T02:19:29.090Z,74.28
2022-09-30T02:20:29.046Z,73.80
2022-09-30T02:21:29.027Z,74.93
2022-09-30T02:22:29.009Z,77.34
2022-09-30T02:23:28.988Z,74.44
2022-09-30T02:24:29.000Z,75.73
2022-09-30T02:25:28.953Z,75.57
2022-09-30T02:26:28.936Z,74.93
2022-09-30T02:27:28.919Z,76.70
2022-09-30T02:28:28.901Z,76.38
2022-09-30T02:29:28.912Z,72.83
2022-09-30T02:30:28.867Z,74.28
2022-09-30T02:31:28.937Z,70.58
2022-09-30T02:32:28.823Z,76.22
2022-09-30T02:33:28.806Z,74.12
2022-09-30T02:34:28.815Z,75.41
2022-09-30T02:35:28.767Z,75.73
2022-09-30T02:36:28.832Z,74.12
2022-09-30T02:37:28.727Z,77.34
2022-09-30T02:38:28.712Z,74.93
2022-09-30T02:39:28.734Z,74.28
2022-09-30T02:40:28.679Z,75.41
2022-09-30T02:41:28.666Z,74.44
2022-09-30T02:42:28.644Z,73.80
2022-09-30T02:43:28.634Z,74.12
2022-09-30T02:44:28.636Z,76.05
2022-09-30T02:45:28.588Z,75.73
2022-09-30T02:46:28.597Z,76.05
2022-09-30T02:47:28.574Z,76.22
2022-09-30T02:48:28.530Z,76.38
2022-09-30T02:49:28.541Z,73.80
2022-09-30T02:50:28.494Z,76.70
2022-09-30T02:51:28.476Z,78.31
2022-09-30T02:52:28.467Z,78.79
2022-09-30T02:53:28.443Z,76.22
2022-09-30T02:54:28.452Z,75.09
2022-09-30T02:55:28.406Z,73.64
2022-09-30T02:56:28.385Z,76.22
2022-09-30T02:57:28.363Z,76.86
2022-09-30T02:58:28.349Z,75.25
2022-09-30T02:59:28.365Z,78.79
2022-09-30T03:00:28.369Z,75.89
2022-09-30T03:01:28.290Z,75.41
2022-09-30T03:02:28.275Z,75.09
2022-09-30T03:03:28.264Z,77.50
2022-09-30T03:04:28.263Z,76.54
2022-09-30T03:05:28.222Z,76.05
2022-09-30T03:06:28.200Z,77.67
2022-09-30T03:07:28.185Z,76.22
2022-09-30T03:08:28.161Z,75.73
2022-09-30T03:09:28.228Z,77.50
2022-09-30T03:10:28.125Z,75.41
2022-09-30T03:11:28.107Z,78.63
2022-09-30T03:12:28.086Z,77.83
2022-09-30T03:13:28.064Z,75.89
2022-09-30T03:14:28.093Z,78.47
2022-09-30T03:15:28.031Z,78.15
2022-09-30T03:16:28.053Z,76.54
2022-09-30T03:17:27.988Z,76.38
2022-09-30T03:18:28.980Z,76.22
2022-09-30T03:19:27.989Z,77.34
2022-09-30T03:20:27.942Z,76.38
2022-09-30T03:21:27.913Z,74.77
2022-09-30T03:22:28.906Z,77.18
2022-09-30T03:23:27.895Z,76.38
2022-09-30T03:24:27.894Z,76.38
2022-09-30T03:25:27.851Z,76.54
2022-09-30T03:26:27.834Z,77.50
2022-09-30T03:27:27.815Z,78.15
2022-09-30T03:28:27.794Z,76.70
2022-09-30T03:29:27.810Z,77.18
2022-09-30T03:30:27.748Z,78.96
2022-09-30T03:31:27.793Z,76.70
2022-09-30T03:32:27.720Z,77.99
2022-09-30T03:33:27.698Z,77.34
2022-09-30T03:34:27.714Z,77.34
2022-09-30T03:35:27.666Z,78.31
2022-09-30T03:36:27.644Z,77.99
2022-09-30T03:37:27.626Z,75.89
2022-09-30T03:38:27.606Z,78.31
2022-09-30T03:39:27.618Z,76.86
2022-09-30T03:40:27.566Z,76.38
2022-09-30T03:41:27.550Z,76.86
2022-09-30T03:42:27.551Z,78.79
2022-09-30T03:43:27.512Z,74.77
2022-09-30T03:44:27.520Z,75.73
2022-09-30T03:45:27.474Z,76.86
2022-09-30T03:46:27.483Z,77.99
2022-09-30T03:47:27.437Z,77.34
2022-09-30T03:48:27.421Z,77.02
2022-09-30T03:49:27.425Z,76.22
2022-09-30T03:50:27.381Z,77.50
2022-09-30T03:51:27.365Z,77.02
2022-09-30T03:52:27.346Z,76.86
2022-09-30T03:53:27.326Z,76.70
2022-09-30T03:54:28.335Z,77.34
2022-09-30T03:55:27.288Z,77.83
2022-09-30T03:56:27.267Z,78.15
2022-09-30T03:57:27.249Z,77.02
2022-09-30T03:58:27.233Z,77.34
2022-09-30T03:59:27.242Z,78.63
2022-09-30T04:00:27.234Z,80.73
2022-09-30T04:01:27.176Z,78.47
2022-09-30T04:02:27.246Z,77.67
2022-09-30T04:03:27.141Z,79.12
2022-09-30T04:04:27.147Z,78.63
2022-09-30T04:05:27.093Z,78.79
2022-09-30T04:06:28.081Z,77.50
2022-09-30T04:07:27.060Z,78.63
2022-09-30T04:08:29.793Z,77.18
2022-09-30T04:09:27.101Z,73.48
2022-09-30T04:10:27.007Z,79.44
2022-09-30T04:11:26.990Z,77.67
2022-09-30T04:12:26.969Z,78.79
2022-09-30T04:13:26.950Z,77.34
2022-09-30T04:14:26.960Z,76.38
2022-09-30T04:15:26.917Z,78.15
2022-09-30T04:16:26.930Z,76.54
2022-09-30T04:17:26.877Z,76.38
2022-09-30T04:18:26.858Z,77.83
2022-09-30T04:19:26.868Z,76.38
2022-09-30T04:20:26.824Z,77.02
2022-09-30T04:21:26.798Z,75.41
2022-09-30T04:22:26.828Z,75.89
2022-09-30T04:23:26.766Z,75.89
2022-09-30T04:24:26.776Z,75.89
2022-09-30T04:25:26.723Z,77.18
2022-09-30T04:26:26.704Z,77.99
2022-09-30T04:27:26.690Z,77.50
2022-09-30T04:28:26.670Z,76.54
2022-09-30T04:29:26.684Z,77.34
2022-09-30T04:30:31.292Z,77.67
2022-09-30T04:31:28.657Z,77.02
2022-09-30T04:32:26.594Z,78.31
2022-09-30T04:33:26.597Z,74.44
2022-09-30T04:34:26.603Z,76.38
2022-09-30T04:35:26.535Z,76.38
2022-09-30T04:36:26.516Z,76.22
2022-09-30T04:37:26.501Z,76.86
2022-09-30T04:38:26.481Z,77.99
2022-09-30T04:39:26.488Z,77.18
2022-09-30T04:40:26.443Z,77.18
2022-09-30T04:41:26.421Z,76.86
2022-09-30T04:42:26.406Z,75.89
2022-09-30T04:43:26.385Z,77.18
2022-09-30T04:44:26.366Z,77.50
2022-09-30T04:45:26.502Z,75.41
2022-09-30T04:46:26.321Z,76.70
2022-09-30T04:47:26.306Z,77.02
2022-09-30T04:48:26.289Z,77.50
2022-09-30T04:49:26.295Z,78.47
2022-09-30T04:50:26.251Z,76.54
2022-09-30T04:51:26.233Z,76.54
2022-09-30T04:52:26.210Z,75.89
2022-09-30T04:53:26.194Z,77.02
2022-09-30T04:54:26.199Z,77.02
2022-09-30T04:55:26.156Z,76.05
2022-09-30T04:56:26.142Z,78.31
2022-09-30T04:57:26.125Z,77.34
2022-09-30T04:58:26.099Z,76.38
2022-09-30T04:59:26.110Z,78.15
2022-09-30T05:00:26.065Z,77.50
2022-09-30T05:01:26.043Z,77.67
2022-09-30T05:02:26.068Z,77.50
2022-09-30T05:03:26.009Z,77.99
2022-09-30T05:04:26.013Z,77.18
2022-09-30T05:05:25.971Z,75.57
2022-09-30T05:06:25.950Z,76.54
2022-09-30T05:07:25.934Z,76.38
2022-09-30T05:08:25.916Z,76.86
2022-09-30T05:09:26.117Z,75.57
2022-09-30T05:10:25.877Z,77.02
2022-09-30T05:11:25.862Z,77.67
2022-09-30T05:12:25.843Z,77.99
2022-09-30T05:13:25.822Z,78.63
2022-09-30T05:14:25.828Z,78.79
2022-09-30T05:15:25.788Z,78.63
2022-09-30T05:16:25.798Z,79.76
2022-09-30T05:17:25.747Z,79.44
2022-09-30T05:18:25.727Z,78.31
2022-09-30T05:19:25.740Z,79.44
2022-09-30T05:20:25.694Z,77.83
2022-09-30T05:21:25.672Z,77.83
2022-09-30T05:22:25.655Z,78.47
2022-09-30T05:23:25.635Z,78.47
2022-09-30T05:24:25.643Z,78.31
2022-09-30T05:25:25.600Z,79.28
2022-09-30T05:26:25.575Z,80.08
2022-09-30T05:27:25.566Z,78.79
2022-09-30T05:28:25.541Z,78.96
2022-09-30T05:29:25.551Z,78.47
2022-09-30T05:30:25.505Z,78.96
2022-09-30T05:31:25.491Z,77.50
2022-09-30T05:32:25.479Z,77.99
2022-09-30T05:33:25.442Z,77.99
2022-09-30T05:34:25.452Z,78.31
2022-09-30T05:35:25.407Z,78.47
2022-09-30T05:36:25.386Z,77.50
2022-09-30T05:37:25.372Z,76.86
2022-09-30T05:38:25.356Z,78.96
2022-09-30T05:39:25.364Z,76.05
2022-09-30T05:40:25.315Z,77.83
2022-09-30T05:41:25.303Z,78.47
2022-09-30T05:42:25.280Z,78.47
2022-09-30T05:43:25.260Z,77.02
2022-09-30T05:44:25.269Z,78.31
2022-09-30T05:45:25.225Z,77.83
2022-09-30T05:46:25.229Z,78.79
2022-09-30T05:47:25.187Z,76.86
2022-09-30T05:48:25.190Z,76.86
2022-09-30T05:49:25.186Z,78.79
2022-09-30T05:50:25.136Z,78.63
2022-09-30T05:51:25.120Z,78.63
2022-09-30T05:52:25.102Z,78.31
2022-09-30T05:53:25.083Z,78.47
2022-09-30T05:54:25.095Z,76.70
2022-09-30T05:55:25.045Z,77.67
2022-09-30T05:56:25.029Z,77.18
2022-09-30T05:57:25.006Z,78.15
2022-09-30T05:58:24.991Z,75.57
2022-09-30T05:59:24.996Z,76.05
2022-09-30T06:00:24.952Z,74.93
2022-09-30T06:01:24.930Z,76.54
2022-09-30T06:02:25.005Z,77.99
2022-09-30T06:03:24.886Z,77.02
2022-09-30T06:04:24.891Z,75.41
2022-09-30T06:05:24.838Z,76.54
2022-09-30T06:06:24.823Z,75.57
2022-09-30T06:07:24.798Z,75.09
2022-09-30T06:08:24.772Z,76.86
2022-09-30T06:09:24.994Z,75.25
2022-09-30T06:10:24.728Z,75.57
2022-09-30T06:11:24.707Z,74.44
2022-09-30T06:12:24.686Z,75.41
2022-09-30T06:13:24.667Z,76.38
2022-09-30T06:14:24.667Z,75.41
2022-09-30T06:15:24.627Z,74.28
2022-09-30T06:16:24.631Z,75.09
2022-09-30T06:17:24.588Z,76.54
2022-09-30T06:18:24.568Z,75.41
2022-09-30T06:19:24.604Z,74.44
2022-09-30T06:20:24.527Z,76.70
2022-09-30T06:21:24.502Z,76.05
2022-09-30T06:22:24.492Z,74.77
2022-09-30T06:23:24.473Z,78.79
2022-09-30T06:24:24.483Z,76.22
2022-09-30T06:25:24.435Z,74.12
2022-09-30T06:26:24.412Z,75.73
2022-09-30T06:27:24.395Z,76.38
2022-09-30T06:28:24.377Z,75.73
2022-09-30T06:29:24.539Z,75.25
2022-09-30T06:30:24.337Z,77.83
2022-09-30T06:31:24.368Z,75.57
2022-09-30T06:32:24.292Z,75.57
2022-09-30T06:33:24.280Z,76.05
2022-09-30T06:34:24.289Z,76.38
2022-09-30T06:35:24.241Z,75.09
2022-09-30T06:36:24.217Z,75.09
2022-09-30T06:37:24.203Z,74.77
2022-09-30T06:38:24.186Z,74.60
2022-09-30T06:39:24.237Z,75.25
2022-09-30T06:40:24.157Z,75.89
2022-09-30T06:41:24.132Z,74.28
2022-09-30T06:42:24.113Z,76.22
2022-09-30T06:43:24.094Z,73.96
2022-09-30T06:44:24.104Z,73.96
2022-09-30T06:45:32.019Z,75.09
2022-09-30T06:46:30.639Z,74.77
2022-09-30T06:47:26.396Z,74.60
2022-09-30T06:48:36.872Z,73.48
2022-09-30T06:49:26.984Z,72.67
2022-09-30T06:50:25.863Z,74.44
2022-09-30T06:51:24.950Z,73.80
2022-09-30T06:52:23.935Z,74.77
2022-09-30T06:53:23.914Z,72.35
2022-09-30T06:54:23.923Z,72.99
2022-09-30T06:55:23.876Z,73.48
2022-09-30T06:56:23.855Z,72.19
2022-09-30T06:57:23.841Z,73.48
2022-09-30T06:58:23.815Z,72.03
2022-09-30T06:59:23.937Z,72.35
2022-09-30T07:00:23.781Z,73.48
2022-09-30T07:01:23.822Z,72.99
2022-09-30T07:02:23.778Z,71.87
2022-09-30T07:03:23.725Z,72.83
2022-09-30T07:04:23.732Z,73.15
2022-09-30T07:05:23.690Z,74.12
2022-09-30T07:06:23.669Z,73.96
2022-09-30T07:07:23.652Z,74.60
2022-09-30T07:08:23.637Z,75.25
2022-09-30T07:09:23.931Z,73.80
2022-09-30T07:10:23.598Z,74.60
2022-09-30T07:11:23.583Z,72.19
2022-09-30T07:12:23.563Z,76.22
2022-09-30T07:13:23.546Z,73.96
2022-09-30T07:14:23.556Z,72.67
2022-09-30T07:15:23.518Z,73.80
2022-09-30T07:16:23.601Z,73.48
2022-09-30T07:17:23.473Z,75.25
2022-09-30T07:18:23.458Z,73.80
2022-09-30T07:19:23.568Z,73.48
2022-09-30T07:20:23.422Z,74.77
2022-09-30T07:21:23.400Z,74.28
2022-09-30T07:22:23.399Z,74.44
2022-09-30T07:23:26.710Z,73.48
2022-09-30T07:24:24.371Z,73.32
2022-09-30T07:25:23.330Z,77.99
2022-09-30T07:26:23.311Z,73.32
2022-09-30T07:27:23.297Z,71.70
2022-09-30T07:28:23.278Z,73.32
2022-09-30T07:29:23.385Z,73.96
2022-09-30T07:30:27.250Z,72.35
2022-09-30T07:31:33.536Z,72.51
2022-09-30T07:32:25.270Z,73.80
2022-09-30T07:33:23.187Z,73.64
2022-09-30T07:34:23.203Z,73.32
2022-09-30T07:35:23.182Z,75.09
2022-09-30T07:36:23.136Z,73.96
2022-09-30T07:37:23.119Z,73.15
2022-09-30T07:38:23.100Z,72.99
2022-09-30T07:39:23.153Z,72.83
2022-09-30T07:40:23.089Z,71.87
2022-09-30T07:41:23.039Z,73.32
2022-09-30T07:42:23.259Z,74.12
2022-09-30T07:43:23.010Z,72.83
2022-09-30T07:44:22.989Z,73.48
2022-09-30T07:45:23.023Z,74.77
2022-09-30T07:46:22.961Z,73.96
2022-09-30T07:47:22.936Z,72.67
2022-09-30T07:48:22.916Z,73.64
2022-09-30T07:49:24.005Z,73.48
2022-09-30T07:50:22.911Z,72.19
2022-09-30T07:51:22.866Z,72.35
2022-09-30T07:52:22.846Z,73.32
2022-09-30T07:53:22.831Z,74.12
2022-09-30T07:54:22.835Z,73.64
2022-09-30T07:55:22.817Z,73.48
2022-09-30T07:56:22.776Z,72.67
2022-09-30T07:57:22.757Z,71.87
2022-09-30T07:58:22.741Z,73.32
2022-09-30T07:59:22.839Z,72.35
2022-09-30T08:00:41.765Z,73.96
2022-09-30T08:01:24.734Z,72.67
2022-09-30T08:02:22.711Z,73.48
2022-09-30T08:03:22.657Z,72.83
2022-09-30T08:04:22.660Z,71.38
2022-09-30T08:05:22.622Z,72.99
2022-09-30T08:06:22.598Z,73.48
2022-09-30T08:07:22.582Z,72.19
2022-09-30T08:08:22.574Z,71.87
2022-09-30T08:09:22.811Z,71.70
2022-09-30T08:10:22.536Z,72.67
2022-09-30T08:11:22.519Z,71.87
2022-09-30T08:12:22.546Z,71.54
2022-09-30T08:13:22.477Z,72.67
2022-09-30T08:14:22.625Z,71.38
2022-09-30T08:15:22.441Z,73.96
2022-09-30T08:16:22.442Z,72.83
2022-09-30T08:17:22.406Z,72.51
2022-09-30T08:18:22.388Z,72.99
2022-09-30T08:19:22.395Z,72.35
2022-09-30T08:20:22.757Z,74.28
2022-09-30T08:21:23.335Z,73.48
2022-09-30T08:22:22.316Z,72.03
2022-09-30T08:23:22.293Z,73.80
2022-09-30T08:24:22.379Z,72.35
2022-09-30T08:25:22.256Z,72.35
2022-09-30T08:26:22.240Z,72.83
2022-09-30T08:27:22.294Z,72.51
2022-09-30T08:28:22.201Z,72.83
2022-09-30T08:29:50.077Z,73.80
2022-09-30T08:30:24.168Z,74.44
2022-09-30T08:31:22.189Z,72.03
2022-09-30T08:32:22.131Z,71.70
2022-09-30T08:33:22.120Z,72.83
2022-09-30T08:34:22.179Z,73.80
2022-09-30T08:35:22.111Z,73.15
2022-09-30T08:36:22.071Z,71.70
2022-09-30T08:37:22.040Z,74.12
2022-09-30T08:38:22.025Z,73.48
2022-09-30T08:39:22.041Z,73.64
2022-09-30T08:40:22.091Z,73.32
2022-09-30T08:41:21.976Z,78.31
2022-09-30T08:42:39.395Z,73.96
2022-09-30T08:43:23.942Z,74.12
2022-09-30T08:44:21.985Z,73.80
2022-09-30T08:45:21.903Z,73.48
2022-09-30T08:46:21.952Z,71.22
2022-09-30T08:47:21.868Z,73.32
2022-09-30T08:48:21.870Z,72.19
2022-09-30T08:49:21.859Z,73.80
2022-09-30T08:50:21.814Z,72.99
2022-09-30T08:51:21.795Z,73.15
2022-09-30T08:52:30.464Z,73.64
2022-09-30T08:53:23.762Z,71.22
2022-09-30T08:54:21.775Z,74.28
2022-09-30T08:55:21.729Z,72.67
2022-09-30T08:56:21.709Z,73.48
2022-09-30T08:57:21.693Z,72.99
2022-09-30T08:58:21.676Z,73.15
2022-09-30T08:59:21.750Z,73.96
2022-09-30T09:00:22.663Z,71.70
2022-09-30T09:01:21.683Z,72.83
2022-09-30T09:02:21.700Z,72.51
2022-09-30T09:03:21.589Z,73.32
2022-09-30T09:04:21.605Z,73.32
2022-09-30T09:05:21.553Z,74.44
2022-09-30T09:06:21.543Z,74.77
2022-09-30T09:07:21.515Z,73.32
2022-09-30T09:08:21.496Z,73.48
2022-09-30T09:09:21.524Z,73.32
2022-09-30T09:10:21.463Z,72.83
2022-09-30T09:11:21.443Z,73.32
2022-09-30T09:12:21.428Z,72.19
2022-09-30T09:13:21.407Z,74.44
2022-09-30T09:14:21.422Z,72.51
2022-09-30T09:15:21.374Z,73.48
2022-09-30T09:16:21.413Z,74.28
2022-09-30T09:17:21.342Z,72.99
2022-09-30T09:18:23.973Z,72.51
2022-09-30T09:19:22.345Z,74.12
2022-09-30T09:20:21.286Z,72.51
2022-09-30T09:21:21.269Z,73.96
2022-09-30T09:22:24.658Z,73.32
2022-09-30T09:23:22.233Z,76.54
2022-09-30T09:24:21.241Z,73.32
2022-09-30T09:25:21.197Z,72.67
2022-09-30T09:26:21.182Z,73.64
2022-09-30T09:27:21.199Z,73.32
2022-09-30T09:28:21.187Z,73.32
2022-09-30T09:29:21.221Z,72.35
2022-09-30T09:30:21.104Z,74.12
2022-09-30T09:31:21.111Z,73.15
2022-09-30T09:32:21.069Z,74.77
2022-09-30T09:33:21.048Z,75.73
2022-09-30T09:34:21.059Z,73.80
2022-09-30T09:35:21.013Z,73.64
2022-09-30T09:36:20.993Z,74.77
2022-09-30T09:37:20.971Z,73.64
2022-09-30T09:38:20.954Z,73.32
2022-09-30T09:39:21.014Z,73.48
2022-09-30T09:40:20.918Z,72.99
2022-09-30T09:41:20.899Z,72.35
2022-09-30T09:42:20.882Z,74.44
2022-09-30T09:43:22.849Z,73.96
2022-09-30T09:44:20.891Z,74.60
2022-09-30T09:45:20.824Z,75.73
2022-09-30T09:46:20.842Z,73.96
2022-09-30T09:47:20.786Z,73.64
2022-09-30T09:48:20.767Z,74.44
2022-09-30T09:49:20.830Z,75.89
2022-09-30T09:50:20.746Z,74.28
2022-09-30T09:51:20.705Z,73.80
2022-09-30T09:52:21.692Z,74.93
2022-09-30T09:53:20.676Z,72.83
2022-09-30T09:54:20.726Z,74.44
2022-09-30T09:55:20.631Z,73.80
2022-09-30T09:56:20.625Z,74.28
2022-09-30T09:57:20.594Z,72.83
2022-09-30T09:58:20.573Z,73.32
2022-09-30T09:59:20.739Z,74.12
2022-09-30T10:00:20.544Z,73.80
2022-09-30T10:01:20.553Z,73.96
2022-09-30T10:02:20.531Z,74.93
2022-09-30T10:03:20.484Z,74.28
2022-09-30T10:04:20.491Z,73.80
2022-09-30T10:05:20.442Z,74.77
2022-09-30T10:06:20.422Z,72.99
2022-09-30T10:07:20.415Z,74.12
2022-09-30T10:08:20.385Z,74.77
2022-09-30T10:09:20.436Z,74.12
2022-09-30T10:10:23.751Z,72.67
2022-09-30T10:11:21.329Z,72.35
2022-09-30T10:12:20.309Z,72.03
2022-09-30T10:13:20.292Z,72.99
2022-09-30T10:14:20.302Z,73.80
2022-09-30T10:15:20.256Z,73.48
2022-09-30T10:16:20.269Z,72.67
2022-09-30T10:17:20.214Z,71.38
2022-09-30T10:18:20.197Z,73.96
2022-09-30T10:19:20.204Z,73.64
2022-09-30T10:20:20.171Z,72.35
2022-09-30T10:21:20.138Z,72.19
2022-09-30T10:22:20.123Z,72.99
2022-09-30T10:23:20.139Z,73.15
2022-09-30T10:24:20.117Z,73.48
2022-09-30T10:25:20.068Z,74.77
2022-09-30T10:26:20.110Z,73.48
2022-09-30T10:27:20.028Z,73.64
2022-09-30T10:28:20.089Z,73.15
2022-09-30T10:29:20.035Z,72.51
2022-09-30T10:30:19.970Z,73.15
2022-09-30T10:31:19.982Z,76.70
2022-09-30T10:32:19.971Z,75.41
2022-09-30T10:33:19.910Z,75.57
2022-09-30T10:34:19.917Z,74.60
2022-09-30T10:35:19.944Z,74.77
2022-09-30T10:36:19.855Z,73.15
2022-09-30T10:37:19.836Z,73.48
2022-09-30T10:38:19.827Z,72.67
2022-09-30T10:39:19.827Z,73.96
2022-09-30T10:40:19.781Z,73.15
2022-09-30T10:41:19.760Z,73.96
2022-09-30T10:42:25.053Z,75.25
2022-09-30T10:43:21.726Z,74.44
2022-09-30T10:44:19.735Z,73.96
2022-09-30T10:45:19.685Z,76.38
2022-09-30T10:46:26.410Z,72.51
2022-09-30T10:47:21.644Z,73.32
2022-09-30T10:48:19.628Z,73.15
2022-09-30T10:49:19.609Z,72.67
2022-09-30T10:50:19.618Z,74.28
2022-09-30T10:51:19.571Z,73.96
2022-09-30T10:52:19.550Z,72.67
2022-09-30T10:53:19.529Z,73.96
2022-09-30T10:54:19.515Z,74.44
2022-09-30T10:55:19.521Z,73.32
2022-09-30T10:56:19.471Z,73.96
2022-09-30T10:57:19.454Z,72.35
2022-09-30T10:58:19.424Z,72.35
2022-09-30T10:59:20.412Z,71.22
2022-09-30T11:00:19.427Z,72.19
2022-09-30T11:01:19.422Z,73.32
2022-09-30T11:02:19.350Z,73.80
2022-09-30T11:03:19.417Z,74.28
2022-09-30T11:04:19.314Z,73.96
2022-09-30T11:05:19.320Z,73.80
2022-09-30T11:06:19.279Z,73.32
2022-09-30T11:07:19.253Z,74.28
2022-09-30T11:08:19.238Z,74.44
2022-09-30T11:09:19.222Z,74.44
2022-09-30T11:10:19.225Z,74.44
2022-09-30T11:11:19.179Z,73.32
2022-09-30T11:12:19.158Z,72.67
2022-09-30T11:13:19.137Z,73.48
2022-09-30T11:14:19.119Z,73.96
2022-09-30T11:15:19.180Z,74.60
2022-09-30T11:16:19.129Z,75.25
2022-09-30T11:17:22.525Z,75.41
2022-09-30T11:18:20.042Z,72.99
2022-09-30T11:19:19.021Z,72.99
2022-09-30T11:20:19.030Z,73.48
2022-09-30T11:21:18.989Z,73.64
2022-09-30T11:22:19.269Z,71.87
2022-09-30T11:23:18.942Z,73.64
2022-09-30T11:24:18.927Z,73.48
2022-09-30T11:25:18.935Z,74.12
2022-09-30T11:26:18.885Z,74.93
2022-09-30T11:27:18.862Z,73.15
2022-09-30T11:28:18.894Z,73.96
2022-09-30T11:29:18.821Z,73.48
2022-09-30T11:30:18.833Z,76.54
2022-09-30T11:31:18.821Z,72.83
2022-09-30T11:32:18.761Z,74.12
2022-09-30T11:33:18.743Z,73.80
2022-09-30T11:34:18.721Z,73.96
2022-09-30T11:35:18.796Z,73.96
2022-09-30T11:36:18.758Z,74.93
2022-09-30T11:37:18.656Z,74.93
2022-09-30T11:38:18.639Z,74.93
2022-09-30T11:39:18.616Z,74.44
2022-09-30T11:40:18.626Z,74.44
2022-09-30T11:41:18.599Z,73.80
2022-09-30T11:42:18.597Z,74.77
2022-09-30T11:43:18.538Z,75.09
2022-09-30T11:44:18.517Z,73.96
2022-09-30T11:45:18.527Z,72.83
2022-09-30T11:46:18.521Z,73.80
2022-09-30T11:47:18.454Z,75.41
2022-09-30T11:48:18.427Z,73.96
2022-09-30T11:49:18.412Z,73.32
2022-09-30T11:50:18.471Z,72.99
2022-09-30T11:51:18.682Z,75.09
2022-09-30T11:52:18.631Z,75.09
2022-09-30T11:53:20.320Z,73.96
2022-09-30T11:54:19.261Z,74.12
2022-09-30T11:55:19.599Z,76.05
2022-09-30T11:56:18.475Z,74.12
2022-09-30T11:57:18.705Z,73.48
2022-09-30T11:58:40.049Z,75.73
2022-09-30T11:59:20.211Z,74.44
2022-09-30T12:00:18.214Z,74.44
2022-09-30T12:01:18.168Z,73.80
2022-09-30T12:02:18.203Z,74.44
2022-09-30T12:03:18.162Z,75.41
2022-09-30T12:04:18.106Z,73.64
2022-09-30T12:05:18.112Z,71.70
2022-09-30T12:06:18.061Z,73.96
2022-09-30T12:07:18.044Z,74.77
2022-09-30T12:08:18.769Z,73.32
2022-09-30T12:09:18.002Z,73.64
2022-09-30T12:10:18.008Z,74.12
2022-09-30T12:11:17.966Z,73.32
2022-09-30T12:12:17.985Z,71.70
2022-09-30T12:13:18.177Z,74.12
2022-09-30T12:14:17.908Z,74.44
2022-09-30T12:15:17.909Z,74.28
2022-09-30T12:16:17.919Z,74.93
2022-09-30T12:17:17.841Z,74.44
2022-09-30T12:18:17.820Z,74.60
2022-09-30T12:19:20.709Z,74.77
2022-09-30T12:20:19.807Z,75.41
2022-09-30T12:21:19.220Z,76.05
2022-09-30T12:22:18.739Z,74.60
2022-09-30T12:23:17.727Z,75.25
2022-09-30T12:24:17.753Z,76.54
2022-09-30T12:25:17.755Z,75.25
2022-09-30T12:26:17.658Z,73.96
2022-09-30T12:27:17.634Z,73.80
2022-09-30T12:28:17.633Z,75.73
2022-09-30T12:29:17.592Z,73.32
2022-09-30T12:30:17.637Z,73.96
2022-09-30T12:31:17.589Z,74.93
2022-09-30T12:32:17.527Z,73.64
2022-09-30T12:33:17.505Z,74.28
2022-09-30T12:34:17.486Z,75.25
2022-09-30T12:35:17.500Z,73.15
2022-09-30T12:36:17.438Z,73.32
2022-09-30T12:37:17.417Z,74.77
2022-09-30T12:38:17.410Z,74.93
2022-09-30T12:39:17.373Z,74.44
2022-09-30T12:40:17.375Z,74.12
2022-09-30T12:41:17.478Z,74.12
2022-09-30T12:42:17.312Z,73.64
2022-09-30T12:43:17.580Z,74.44
2022-09-30T12:44:17.253Z,73.15
2022-09-30T12:45:17.271Z,72.99
2022-09-30T12:46:17.273Z,74.12
2022-09-30T12:47:17.197Z,73.32
2022-09-30T12:48:17.697Z,72.83
2022-09-30T12:49:18.151Z,73.48
2022-09-30T12:50:17.159Z,73.64
2022-09-30T12:51:17.114Z,73.15
2022-09-30T12:52:17.087Z,75.09